sensor_id;sensor_type;location;lat;lon;timestamp;P1;durP1;ratioP1;P2;durP2;ratioP2
60426;SDS011;46274;47.168;27.604;2023-11-22T00:02:37;92.50;;;26.00;;
60426;SDS011;46274;47.168;27.604;2023-11-22T00:08:43;64.13;;;25.27;;
60426;SDS011;46274;47.168;27.604;2023-11-22T00:14:45;158.97;;;30.37;;
60426;SDS011;46274;47.168;27.604;2023-11-22T00:20:55;91.50;;;27.37;;
60426;SDS011;46274;47.168;27.604;2023-11-22T00:26:57;50.03;;;22.57;;
60426;SDS011;46274;47.168;27.604;2023-11-22T00:33:00;52.13;;;24.70;;
60426;SDS011;46274;47.168;27.604;2023-11-22T00:39:03;54.43;;;22.00;;
60426;SDS011;46274;47.168;27.604;2023-11-22T00:45:06;53.60;;;23.33;;
60426;SDS011;46274;47.168;27.604;2023-11-22T00:51:09;47.57;;;21.60;;
60426;SDS011;46274;47.168;27.604;2023-11-22T00:57:12;54.00;;;24.60;;
60426;SDS011;46274;47.168;27.604;2023-11-22T01:03:15;94.60;;;22.43;;
60426;SDS011;46274;47.168;27.604;2023-11-22T01:09:17;52.13;;;24.13;;
60426;SDS011;46274;47.168;27.604;2023-11-22T01:15:20;256.57;;;39.07;;
60426;SDS011;46274;47.168;27.604;2023-11-22T01:21:22;82.00;;;27.03;;
60426;SDS011;46274;47.168;27.604;2023-11-22T01:27:25;49.93;;;23.40;;
60426;SDS011;46274;47.168;27.604;2023-11-22T01:33:27;45.13;;;21.47;;
60426;SDS011;46274;47.168;27.604;2023-11-22T01:39:30;50.93;;;22.67;;
60426;SDS011;46274;47.168;27.604;2023-11-22T01:45:36;49.73;;;22.67;;
60426;SDS011;46274;47.168;27.604;2023-11-22T01:51:39;49.33;;;24.73;;
60426;SDS011;46274;47.168;27.604;2023-11-22T01:57:44;45.73;;;21.33;;
60426;SDS011;46274;47.168;27.604;2023-11-22T02:03:46;48.17;;;23.40;;
60426;SDS011;46274;47.168;27.604;2023-11-22T02:09:49;44.10;;;21.87;;
60426;SDS011;46274;47.168;27.604;2023-11-22T02:15:51;43.07;;;21.53;;
60426;SDS011;46274;47.168;27.604;2023-11-22T02:21:58;56.83;;;25.63;;
60426;SDS011;46274;47.168;27.604;2023-11-22T02:28:14;58.83;;;25.03;;
60426;SDS011;46274;47.168;27.604;2023-11-22T02:34:17;53.40;;;23.20;;
60426;SDS011;46274;47.168;27.604;2023-11-22T02:40:26;48.93;;;23.63;;
60426;SDS011;46274;47.168;27.604;2023-11-22T02:46:32;53.20;;;26.47;;
60426;SDS011;46274;47.168;27.604;2023-11-22T02:52:35;55.80;;;25.57;;
60426;SDS011;46274;47.168;27.604;2023-11-22T02:58:39;53.40;;;24.63;;
60426;SDS011;46274;47.168;27.604;2023-11-22T03:04:48;45.67;;;22.90;;
60426;SDS011;46274;47.168;27.604;2023-11-22T03:10:55;55.97;;;26.43;;
60426;SDS011;46274;47.168;27.604;2023-11-22T03:16:58;52.57;;;25.43;;
60426;SDS011;46274;47.168;27.604;2023-11-22T03:23:01;52.37;;;25.03;;
60426;SDS011;46274;47.168;27.604;2023-11-22T03:29:11;57.00;;;25.27;;
60426;SDS011;46274;47.168;27.604;2023-11-22T03:35:17;48.27;;;22.50;;
60426;SDS011;46274;47.168;27.604;2023-11-22T03:41:20;50.40;;;24.13;;
60426;SDS011;46274;47.168;27.604;2023-11-22T03:47:33;45.67;;;23.47;;
60426;SDS011;46274;47.168;27.604;2023-11-22T03:53:52;57.20;;;27.13;;
60426;SDS011;46274;47.168;27.604;2023-11-22T03:59:56;79.77;;;35.40;;
60426;SDS011;46274;47.168;27.604;2023-11-22T04:05:58;69.37;;;30.30;;
60426;SDS011;46274;47.168;27.604;2023-11-22T04:12:00;68.67;;;32.93;;
60426;SDS011;46274;47.168;27.604;2023-11-22T04:18:03;61.70;;;29.27;;
60426;SDS011;46274;47.168;27.604;2023-11-22T04:24:08;78.53;;;35.00;;
60426;SDS011;46274;47.168;27.604;2023-11-22T04:30:20;70.23;;;32.30;;
60426;SDS011;46274;47.168;27.604;2023-11-22T04:36:22;63.47;;;27.10;;
60426;SDS011;46274;47.168;27.604;2023-11-22T04:42:25;56.90;;;25.03;;
60426;SDS011;46274;47.168;27.604;2023-11-22T04:48:35;47.80;;;22.93;;
60426;SDS011;46274;47.168;27.604;2023-11-22T04:54:40;35.47;;;17.00;;
60426;SDS011;46274;47.168;27.604;2023-11-22T05:00:47;27.47;;;12.90;;
60426;SDS011;46274;47.168;27.604;2023-11-22T05:06:50;15.57;;;8.00;;
60426;SDS011;46274;47.168;27.604;2023-11-22T05:12:52;13.13;;;7.83;;
60426;SDS011;46274;47.168;27.604;2023-11-22T05:18:56;13.77;;;5.80;;
60426;SDS011;46274;47.168;27.604;2023-11-22T05:24:58;10.43;;;5.77;;
60426;SDS011;46274;47.168;27.604;2023-11-22T05:31:02;10.17;;;6.20;;
60426;SDS011;46274;47.168;27.604;2023-11-22T05:37:18;13.17;;;5.63;;
60426;SDS011;46274;47.168;27.604;2023-11-22T05:43:23;12.20;;;6.07;;
60426;SDS011;46274;47.168;27.604;2023-11-22T05:49:29;11.57;;;5.80;;
60426;SDS011;46274;47.168;27.604;2023-11-22T05:55:31;9.67;;;4.90;;
60426;SDS011;46274;47.168;27.604;2023-11-22T06:01:41;9.73;;;5.50;;
60426;SDS011;46274;47.168;27.604;2023-11-22T06:07:46;9.47;;;5.97;;
60426;SDS011;46274;47.168;27.604;2023-11-22T06:13:55;9.63;;;5.70;;
60426;SDS011;46274;47.168;27.604;2023-11-22T06:20:00;13.83;;;8.83;;
60426;SDS011;46274;47.168;27.604;2023-11-22T06:26:11;13.67;;;6.97;;
60426;SDS011;46274;47.168;27.604;2023-11-22T06:32:17;12.23;;;6.80;;
60426;SDS011;46274;47.168;27.604;2023-11-22T06:38:19;11.27;;;6.40;;
60426;SDS011;46274;47.168;27.604;2023-11-22T06:44:24;14.30;;;6.33;;
60426;SDS011;46274;47.168;27.604;2023-11-22T06:50:27;10.50;;;5.63;;
60426;SDS011;46274;47.168;27.604;2023-11-22T06:56:34;13.47;;;6.73;;
60426;SDS011;46274;47.168;27.604;2023-11-22T07:02:43;12.17;;;5.87;;
60426;SDS011;46274;47.168;27.604;2023-11-22T07:09:02;10.17;;;5.50;;
60426;SDS011;46274;47.168;27.604;2023-11-22T07:15:06;12.57;;;6.83;;
60426;SDS011;46274;47.168;27.604;2023-11-22T07:21:11;13.27;;;6.83;;
60426;SDS011;46274;47.168;27.604;2023-11-22T07:27:17;15.50;;;8.73;;
60426;SDS011;46274;47.168;27.604;2023-11-22T07:33:20;12.37;;;7.00;;
60426;SDS011;46274;47.168;27.604;2023-11-22T07:39:30;12.83;;;6.83;;
60426;SDS011;46274;47.168;27.604;2023-11-22T07:45:32;13.90;;;7.30;;
60426;SDS011;46274;47.168;27.604;2023-11-22T07:51:45;21.53;;;8.17;;
60426;SDS011;46274;47.168;27.604;2023-11-22T07:58:08;19.23;;;8.50;;
60426;SDS011;46274;47.168;27.604;2023-11-22T08:04:13;16.53;;;8.43;;
60426;SDS011;46274;47.168;27.604;2023-11-22T08:10:19;17.60;;;8.80;;
60426;SDS011;46274;47.168;27.604;2023-11-22T08:16:29;18.07;;;9.33;;
60426;SDS011;46274;47.168;27.604;2023-11-22T08:22:44;17.77;;;8.73;;
60426;SDS011;46274;47.168;27.604;2023-11-22T08:29:01;22.90;;;8.83;;
60426;SDS011;46274;47.168;27.604;2023-11-22T08:35:07;20.40;;;8.67;;
60426;SDS011;46274;47.168;27.604;2023-11-22T08:41:14;19.53;;;9.47;;
60426;SDS011;46274;47.168;27.604;2023-11-22T08:47:16;17.30;;;9.47;;
60426;SDS011;46274;47.168;27.604;2023-11-22T08:53:24;19.57;;;9.53;;
60426;SDS011;46274;47.168;27.604;2023-11-22T08:59:29;13.93;;;8.23;;
60426;SDS011;46274;47.168;27.604;2023-11-22T09:05:34;13.67;;;7.83;;
60426;SDS011;46274;47.168;27.604;2023-11-22T09:11:36;20.60;;;8.93;;
60426;SDS011;46274;47.168;27.604;2023-11-22T09:17:39;16.17;;;8.53;;
60426;SDS011;46274;47.168;27.604;2023-11-22T09:23:46;16.50;;;8.97;;
60426;SDS011;46274;47.168;27.604;2023-11-22T09:29:51;15.83;;;8.53;;
60426;SDS011;46274;47.168;27.604;2023-11-22T09:36:07;14.17;;;7.87;;
60426;SDS011;46274;47.168;27.604;2023-11-22T09:42:13;17.53;;;8.77;;
60426;SDS011;46274;47.168;27.604;2023-11-22T09:48:24;15.33;;;8.27;;
60426;SDS011;46274;47.168;27.604;2023-11-22T09:54:42;15.00;;;8.27;;
60426;SDS011;46274;47.168;27.604;2023-11-22T10:00:59;24.03;;;11.23;;
60426;SDS011;46274;47.168;27.604;2023-11-22T10:07:04;23.47;;;10.70;;
60426;SDS011;46274;47.168;27.604;2023-11-22T10:13:08;19.17;;;10.03;;
60426;SDS011;46274;47.168;27.604;2023-11-22T10:19:23;27.67;;;12.07;;
60426;SDS011;46274;47.168;27.604;2023-11-22T10:25:30;23.80;;;11.50;;
60426;SDS011;46274;47.168;27.604;2023-11-22T10:31:40;28.83;;;13.47;;
60426;SDS011;46274;47.168;27.604;2023-11-22T10:37:59;30.73;;;14.43;;
60426;SDS011;46274;47.168;27.604;2023-11-22T10:44:12;36.03;;;17.10;;
60426;SDS011;46274;47.168;27.604;2023-11-22T10:50:25;37.93;;;18.00;;
60426;SDS011;46274;47.168;27.604;2023-11-22T10:56:28;32.20;;;15.83;;
60426;SDS011;46274;47.168;27.604;2023-11-22T11:02:58;36.10;;;16.23;;
60426;SDS011;46274;47.168;27.604;2023-11-22T11:09:56;34.37;;;15.40;;
60426;SDS011;46274;47.168;27.604;2023-11-22T11:16:38;35.73;;;15.97;;
60426;SDS011;46274;47.168;27.604;2023-11-22T11:23:05;48.60;;;19.40;;
60426;SDS011;46274;47.168;27.604;2023-11-22T11:37:23;40.70;;;17.87;;
60426;SDS011;46274;47.168;27.604;2023-11-22T11:44:31;37.10;;;17.47;;
60426;SDS011;46274;47.168;27.604;2023-11-22T12:13:22;43.87;;;19.83;;
60426;SDS011;46274;47.168;27.604;2023-11-22T12:19:49;48.23;;;21.13;;
60426;SDS011;46274;47.168;27.604;2023-11-22T12:27:00;37.77;;;17.43;;
60426;SDS011;46274;47.168;27.604;2023-11-22T12:33:52;41.67;;;19.53;;
60426;SDS011;46274;47.168;27.604;2023-11-22T12:41:05;39.73;;;19.10;;
60426;SDS011;46274;47.168;27.604;2023-11-22T12:55:21;45.40;;;21.43;;
60426;SDS011;46274;47.168;27.604;2023-11-22T13:01:53;32.53;;;15.97;;
60426;SDS011;46274;47.168;27.604;2023-11-22T13:08:18;39.17;;;18.53;;
60426;SDS011;46274;47.168;27.604;2023-11-22T13:14:52;33.77;;;17.00;;
60426;SDS011;46274;47.168;27.604;2023-11-22T13:21:19;32.13;;;16.07;;
60426;SDS011;46274;47.168;27.604;2023-11-22T13:27:27;29.90;;;14.20;;
60426;SDS011;46274;47.168;27.604;2023-11-22T13:34:01;29.17;;;14.63;;
60426;SDS011;46274;47.168;27.604;2023-11-22T13:40:35;30.17;;;12.90;;
60426;SDS011;46274;47.168;27.604;2023-11-22T13:46:51;31.90;;;15.77;;
60426;SDS011;46274;47.168;27.604;2023-11-22T13:53:26;31.30;;;15.13;;
60426;SDS011;46274;47.168;27.604;2023-11-22T14:00:06;26.43;;;13.17;;
60426;SDS011;46274;47.168;27.604;2023-11-22T14:06:41;28.80;;;13.83;;
60426;SDS011;46274;47.168;27.604;2023-11-22T14:13:19;22.07;;;11.40;;
60426;SDS011;46274;47.168;27.604;2023-11-22T14:20:21;22.60;;;12.23;;
60426;SDS011;46274;47.168;27.604;2023-11-22T14:26:43;25.73;;;12.83;;
60426;SDS011;46274;47.168;27.604;2023-11-22T14:40:26;23.37;;;12.23;;
60426;SDS011;46274;47.168;27.604;2023-11-22T14:46:56;23.53;;;12.57;;
60426;SDS011;46274;47.168;27.604;2023-11-22T14:53:44;31.13;;;14.07;;
60426;SDS011;46274;47.168;27.604;2023-11-22T15:00:02;27.13;;;14.80;;
60426;SDS011;46274;47.168;27.604;2023-11-22T15:06:56;29.03;;;13.00;;
60426;SDS011;46274;47.168;27.604;2023-11-22T15:13:38;28.10;;;13.47;;
60426;SDS011;46274;47.168;27.604;2023-11-22T15:26:40;26.20;;;13.03;;
60426;SDS011;46274;47.168;27.604;2023-11-22T15:33:26;25.97;;;12.93;;
60426;SDS011;46274;47.168;27.604;2023-11-22T15:40:02;27.37;;;12.83;;
60426;SDS011;46274;47.168;27.604;2023-11-22T15:46:32;29.03;;;14.40;;
60426;SDS011;46274;47.168;27.604;2023-11-22T15:53:34;33.77;;;13.80;;
60426;SDS011;46274;47.168;27.604;2023-11-22T16:00:09;30.13;;;15.07;;
60426;SDS011;46274;47.168;27.604;2023-11-22T16:06:29;33.43;;;16.27;;
60426;SDS011;46274;47.168;27.604;2023-11-22T16:13:02;31.83;;;15.57;;
60426;SDS011;46274;47.168;27.604;2023-11-22T16:19:51;29.10;;;14.33;;
60426;SDS011;46274;47.168;27.604;2023-11-22T16:26:29;32.03;;;16.00;;
60426;SDS011;46274;47.168;27.604;2023-11-22T16:33:03;34.50;;;16.60;;
60426;SDS011;46274;47.168;27.604;2023-11-22T16:39:29;30.67;;;14.93;;
60426;SDS011;46274;47.168;27.604;2023-11-22T16:45:57;36.00;;;14.70;;
60426;SDS011;46274;47.168;27.604;2023-11-22T16:52:31;34.67;;;16.50;;
60426;SDS011;46274;47.168;27.604;2023-11-22T16:58:57;37.77;;;17.77;;
60426;SDS011;46274;47.168;27.604;2023-11-22T17:05:28;32.07;;;15.33;;
60426;SDS011;46274;47.168;27.604;2023-11-22T17:12:09;24.43;;;13.30;;
60426;SDS011;46274;47.168;27.604;2023-11-22T17:18:20;24.43;;;13.40;;
60426;SDS011;46274;47.168;27.604;2023-11-22T17:31:25;25.77;;;12.73;;
60426;SDS011;46274;47.168;27.604;2023-11-22T17:37:49;24.37;;;11.77;;
60426;SDS011;46274;47.168;27.604;2023-11-22T17:44:50;23.93;;;13.07;;
60426;SDS011;46274;47.168;27.604;2023-11-22T17:58:37;27.93;;;13.80;;
60426;SDS011;46274;47.168;27.604;2023-11-22T18:05:50;26.70;;;13.60;;
60426;SDS011;46274;47.168;27.604;2023-11-22T18:19:47;27.20;;;14.90;;
60426;SDS011;46274;47.168;27.604;2023-11-22T18:26:03;28.47;;;13.80;;
60426;SDS011;46274;47.168;27.604;2023-11-22T18:32:40;25.97;;;13.90;;
60426;SDS011;46274;47.168;27.604;2023-11-22T18:39:12;25.77;;;14.87;;
60426;SDS011;46274;47.168;27.604;2023-11-22T18:45:34;29.87;;;15.57;;
60426;SDS011;46274;47.168;27.604;2023-11-22T18:52:11;27.90;;;14.73;;
60426;SDS011;46274;47.168;27.604;2023-11-22T18:58:34;37.00;;;15.57;;
60426;SDS011;46274;47.168;27.604;2023-11-22T19:05:15;31.73;;;15.27;;
60426;SDS011;46274;47.168;27.604;2023-11-22T19:11:37;35.10;;;16.40;;
60426;SDS011;46274;47.168;27.604;2023-11-22T19:17:47;33.60;;;14.50;;
60426;SDS011;46274;47.168;27.604;2023-11-22T19:30:50;44.07;;;18.77;;
60426;SDS011;46274;47.168;27.604;2023-11-22T19:37:06;47.47;;;19.57;;
60426;SDS011;46274;47.168;27.604;2023-11-22T19:43:09;46.23;;;20.20;;
60426;SDS011;46274;47.168;27.604;2023-11-22T19:49:32;38.10;;;18.07;;
60426;SDS011;46274;47.168;27.604;2023-11-22T19:55:38;43.83;;;18.23;;
60426;SDS011;46274;47.168;27.604;2023-11-22T20:01:43;48.90;;;21.30;;
60426;SDS011;46274;47.168;27.604;2023-11-22T20:08:01;49.20;;;20.60;;
60426;SDS011;46274;47.168;27.604;2023-11-22T20:14:52;50.20;;;19.30;;
60426;SDS011;46274;47.168;27.604;2023-11-22T20:21:16;45.47;;;18.57;;
60426;SDS011;46274;47.168;27.604;2023-11-22T20:27:38;48.37;;;18.80;;
60426;SDS011;46274;47.168;27.604;2023-11-22T20:34:08;38.80;;;17.73;;
60426;SDS011;46274;47.168;27.604;2023-11-22T20:40:33;36.77;;;17.10;;
60426;SDS011;46274;47.168;27.604;2023-11-22T20:46:38;40.90;;;16.73;;
60426;SDS011;46274;47.168;27.604;2023-11-22T20:53:13;44.93;;;18.03;;
60426;SDS011;46274;47.168;27.604;2023-11-22T20:59:26;37.80;;;16.70;;
60426;SDS011;46274;47.168;27.604;2023-11-22T21:06:03;35.90;;;16.57;;
60426;SDS011;46274;47.168;27.604;2023-11-22T21:12:12;31.27;;;14.67;;
60426;SDS011;46274;47.168;27.604;2023-11-22T21:18:29;30.80;;;14.50;;
60426;SDS011;46274;47.168;27.604;2023-11-22T21:25:05;24.73;;;12.03;;
60426;SDS011;46274;47.168;27.604;2023-11-22T21:31:25;29.10;;;12.93;;
60426;SDS011;46274;47.168;27.604;2023-11-22T21:38:06;33.03;;;14.07;;
60426;SDS011;46274;47.168;27.604;2023-11-22T21:44:27;25.33;;;11.43;;
60426;SDS011;46274;47.168;27.604;2023-11-22T21:51:42;36.50;;;15.97;;
60426;SDS011;46274;47.168;27.604;2023-11-22T21:58:14;25.83;;;11.53;;
60426;SDS011;46274;47.168;27.604;2023-11-22T22:04:38;26.93;;;11.47;;
60426;SDS011;46274;47.168;27.604;2023-11-22T22:11:25;28.40;;;11.83;;
60426;SDS011;46274;47.168;27.604;2023-11-22T22:17:43;27.57;;;11.97;;
60426;SDS011;46274;47.168;27.604;2023-11-22T22:23:51;29.83;;;11.10;;
60426;SDS011;46274;47.168;27.604;2023-11-22T22:30:22;24.90;;;11.17;;
60426;SDS011;46274;47.168;27.604;2023-11-22T22:43:20;24.47;;;10.33;;
60426;SDS011;46274;47.168;27.604;2023-11-22T22:56:36;22.03;;;9.60;;
60426;SDS011;46274;47.168;27.604;2023-11-22T23:02:58;20.03;;;9.40;;
60426;SDS011;46274;47.168;27.604;2023-11-22T23:09:20;24.63;;;9.80;;
60426;SDS011;46274;47.168;27.604;2023-11-22T23:15:53;19.83;;;8.57;;
60426;SDS011;46274;47.168;27.604;2023-11-22T23:22:06;18.90;;;8.77;;
60426;SDS011;46274;47.168;27.604;2023-11-22T23:28:37;21.00;;;8.97;;
60426;SDS011;46274;47.168;27.604;2023-11-22T23:35:08;24.80;;;9.37;;
60426;SDS011;46274;47.168;27.604;2023-11-22T23:41:44;20.70;;;8.37;;
60426;SDS011;46274;47.168;27.604;2023-11-22T23:48:04;16.90;;;8.07;;
60426;SDS011;46274;47.168;27.604;2023-11-22T23:54:55;14.07;;;7.30;;
